Time;durP1;ratioP1;P1;durP2;ratioP2;P2;SDS_P1;SDS_P2;PMS_P1;PMS_P2;Temp;Humidity;BMP_temperature;BMP_pressure;BME280_temperature;BME280_humidity;BME280_pressure;Samples;Min_cycle;Max_cycle;Signal;HPM_P1;HPM_P2
2022/09/30 00:00:17;;;;;;;;;;;;;;;10.98;64.54;100349.69;5049668;28;19919;-74
2022/09/30 00:02:42;;;;;;;;;;;;;;;11.05;64.35;100350.34;5057241;28;19918;-74
2022/09/30 00:05:08;;;;;;;;;;;;;;;10.96;64.24;100344.53;5048649;28;19920;-74
2022/09/30 00:07:33;;;;;;;;;;;;;;;10.93;64.18;100355.03;5048615;28;19929;-74
2022/09/30 00:09:58;;;;;;;;;;;;;;;10.83;64.54;100361.38;5032016;28;19921;-74
2022/09/30 00:12:24;;;;;;;;;;;;;;;10.87;64.55;100356.94;5049746;28;20003;-74
2022/09/30 00:14:49;;;;;;;;;;;;;;;10.84;64.44;100346.63;5049475;28;19927;-74
2022/09/30 00:17:14;;;;;;;;;;;;;;;10.79;64.02;100359.75;5047164;28;20417;-74
2022/09/30 00:19:39;;;;;;;;;;;;;;;10.73;64.50;100372.06;5046625;28;19948;-74
2022/09/30 00:22:05;;;;;;;;;;;;;;;10.81;63.90;100362.31;5048668;28;19920;-73
2022/09/30 00:24:30;;;;;;;;;;;;;;;10.81;63.59;100370.09;5056047;28;19999;-74
2022/09/30 00:26:55;;;;;;;;;;;;;;;10.69;63.86;100370.44;5041733;28;19923;-73
2022/09/30 00:29:21;;;;;;;;;;;;;;;10.73;64.44;100372.06;5049202;28;20278;-73
2022/09/30 00:31:46;;;;;;;;;;;;;;;10.78;63.67;100368.44;5050014;28;19917;-74
2022/09/30 00:34:11;;;;;;;;;;;;;;;10.74;63.56;100368.56;5047391;28;20470;-74
2022/09/30 00:36:39;;;;;;;;;;;;;;;10.70;63.95;100370.38;5048784;28;19946;-74
2022/09/30 00:39:05;;;;;;;;;;;;;;;10.70;64.04;100374.75;5053001;28;19997;-74
2022/09/30 00:41:31;;;;;;;;;;;;;;;10.63;64.58;100368.88;5029845;28;19913;-74
2022/09/30 00:43:56;;;;;;;;;;;;;;;10.71;64.24;100376.44;5030115;28;19917;-73
2022/09/30 00:46:28;;;;;;;;;;;;;;;10.76;63.53;100383.22;5026798;28;19969;-74
2022/09/30 00:48:56;;;;;;;;;;;;;;;10.72;63.68;100379.00;5024594;28;19943;-74
2022/09/30 00:51:26;;;;;;;;;;;;;;;10.69;64.04;100388.63;5028436;28;20082;-74
2022/09/30 00:53:53;;;;;;;;;;;;;;;10.65;64.42;100390.44;5031212;28;19923;-74
2022/09/30 00:56:22;;;;;;;;;;;;;;;10.60;64.03;100391.47;5045294;28;20020;-74
2022/09/30 00:58:59;;;;;;;;;;;;;;;10.53;64.59;100390.78;5033488;28;19932;-74
2022/09/30 01:01:24;;;;;;;;;;;;;;;10.52;64.12;100388.25;5048847;28;19927;-74
2022/09/30 01:03:52;;;;;;;;;;;;;;;10.58;64.53;100394.13;5051868;28;19921;-74
2022/09/30 01:06:18;;;;;;;;;;;;;;;10.69;63.97;100391.22;5050949;28;19917;-74
2022/09/30 01:08:44;;;;;;;;;;;;;;;10.62;64.00;100380.16;5047217;28;19921;-74
2022/09/30 01:11:09;;;;;;;;;;;;;;;10.71;64.07;100382.50;5051696;28;20007;-74
2022/09/30 01:13:36;;;;;;;;;;;;;;;10.52;64.25;100383.03;5048663;28;20006;-74
2022/09/30 01:16:05;;;;;;;;;;;;;;;10.50;63.70;100385.66;5053674;28;20408;-74
2022/09/30 01:18:40;;;;;;;;;;;;;;;10.54;63.92;100394.22;5051740;28;19968;-73
2022/09/30 01:21:25;;;;;;;;;;;;;;;10.55;63.28;100393.34;5049906;28;19920;-74
2022/09/30 01:24:11;;;;;;;;;;;;;;;10.51;63.73;100394.31;5003026;28;19921;-74
2022/09/30 01:26:55;;;;;;;;;;;;;;;10.53;63.55;100390.78;5036993;28;19917;-74
2022/09/30 01:29:39;;;;;;;;;;;;;;;10.49;63.88;100393.50;5052233;28;19925;-74
2022/09/30 01:32:08;;;;;;;;;;;;;;;10.50;64.19;100403.00;5048791;28;19920;-74
2022/09/30 01:34:36;;;;;;;;;;;;;;;10.50;63.36;100401.25;5053998;28;19959;-73
2022/09/30 01:37:14;;;;;;;;;;;;;;;10.46;63.70;100407.44;5047583;28;19924;-74
2022/09/30 01:39:45;;;;;;;;;;;;;;;10.37;63.15;100413.69;5052510;28;20377;-74
2022/09/30 01:42:22;;;;;;;;;;;;;;;10.49;63.54;100403.91;5050766;28;19913;-76
2022/09/30 01:44:47;;;;;;;;;;;;;;;10.44;63.69;100412.66;5049312;28;19917;-76
2022/09/30 01:47:28;;;;;;;;;;;;;;;10.45;63.28;100414.38;5051083;28;19928;-76
2022/09/30 01:49:57;;;;;;;;;;;;;;;10.50;63.40;100413.38;5048196;28;19921;-76
2022/09/30 01:52:41;;;;;;;;;;;;;;;10.44;63.15;100409.19;5044174;28;19929;-76
2022/09/30 01:55:12;;;;;;;;;;;;;;;10.34;63.75;100402.56;5027529;28;20043;-76
2022/09/30 01:57:53;;;;;;;;;;;;;;;10.54;63.12;100402.03;5037024;28;19929;-76
2022/09/30 02:00:20;;;;;;;;;;;;;;;10.55;63.37;100408.94;5048936;28;19917;-76
2022/09/30 02:02:49;;;;;;;;;;;;;;;10.34;63.07;100413.78;5047521;28;19924;-76
2022/09/30 02:05:23;;;;;;;;;;;;;;;10.38;63.46;100411.94;5043285;28;20365;-76
2022/09/30 02:07:53;;;;;;;;;;;;;;;10.31;63.18;100413.03;5047582;28;19917;-76
2022/09/30 02:10:27;;;;;;;;;;;;;;;10.27;63.48;100404.44;5056504;28;19921;-76
2022/09/30 02:12:57;;;;;;;;;;;;;;;10.32;63.65;100405.19;5051422;28;19966;-76
2022/09/30 02:15:25;;;;;;;;;;;;;;;10.43;62.85;100400.56;5043640;28;19975;-76
2022/09/30 02:18:19;;;;;;;;;;;;;;;10.35;62.93;100410.28;5051306;28;19960;-76
2022/09/30 02:20:47;;;;;;;;;;;;;;;10.42;63.09;100414.44;5042980;28;20408;-76
2022/09/30 02:23:15;;;;;;;;;;;;;;;10.32;63.21;100412.97;5050178;28;19928;-76
2022/09/30 02:25:44;;;;;;;;;;;;;;;10.43;62.61;100413.53;5058687;28;19921;-76
2022/09/30 02:28:11;;;;;;;;;;;;;;;10.20;63.55;100415.88;5049184;28;19960;-76
2022/09/30 02:30:38;;;;;;;;;;;;;;;10.20;63.46;100415.88;5056107;28;20370;-76
2022/09/30 02:33:10;;;;;;;;;;;;;;;10.12;63.89;100420.41;5056162;28;19933;-77
2022/09/30 02:35:47;;;;;;;;;;;;;;;10.28;63.26;100419.16;5049665;28;19956;-76
2022/09/30 02:38:24;;;;;;;;;;;;;;;10.18;63.32;100415.06;5052922;28;19929;-76
2022/09/30 02:40:51;;;;;;;;;;;;;;;10.32;63.03;100409.50;5050726;28;20368;-76
2022/09/30 02:43:19;;;;;;;;;;;;;;;10.25;63.08;100405.38;5049048;28;19925;-76
2022/09/30 02:46:02;;;;;;;;;;;;;;;10.21;63.62;100407.19;5050101;28;19921;-76
2022/09/30 02:48:31;;;;;;;;;;;;;;;10.21;63.13;100409.78;5051663;28;19970;-76
2022/09/30 02:51:17;;;;;;;;;;;;;;;10.17;63.08;100417.69;5052292;28;20293;-76
2022/09/30 02:54:06;;;;;;;;;;;;;;;10.14;63.18;100405.63;5053844;28;20023;-76
2022/09/30 02:56:43;;;;;;;;;;;;;;;10.17;62.97;100410.75;5007374;28;19920;-76
2022/09/30 02:59:08;;;;;;;;;;;;;;;10.19;62.87;100413.31;5050893;28;19925;-76
2022/09/30 03:01:33;;;;;;;;;;;;;;;10.19;62.45;100406.41;5049184;28;20054;-76
2022/09/30 03:04:03;;;;;;;;;;;;;;;10.09;62.67;100407.50;5047682;28;19986;-76
2022/09/30 03:06:28;;;;;;;;;;;;;;;10.14;62.63;100413.44;5051979;28;19928;-76
2022/09/30 03:08:54;;;;;;;;;;;;;;;10.11;62.55;100413.50;5061120;28;19913;-76
2022/09/30 03:11:25;;;;;;;;;;;;;;;9.95;62.84;100412.19;5048062;28;19925;-76
2022/09/30 03:13:50;;;;;;;;;;;;;;;10.06;62.93;100419.69;5053424;28;19921;-76
2022/09/30 03:16:28;;;;;;;;;;;;;;;10.06;62.44;100422.28;5054995;28;20023;-75
2022/09/30 03:19:12;;;;;;;;;;;;;;;10.19;62.08;100424.56;5065178;28;19978;-75
2022/09/30 03:21:41;;;;;;;;;;;;;;;10.04;62.38;100432.72;5044316;28;19928;-75
2022/09/30 03:24:06;;;;;;;;;;;;;;;10.01;62.54;100438.00;5026296;28;20066;-75
2022/09/30 03:26:40;;;;;;;;;;;;;;;10.02;62.74;100436.25;5028341;28;20023;-76
2022/09/30 03:29:06;;;;;;;;;;;;;;;9.98;62.56;100448.44;5027665;28;20750;-75
2022/09/30 03:31:40;;;;;;;;;;;;;;;10.14;62.28;100447.16;5031934;28;20015;-75
2022/09/30 03:34:14;;;;;;;;;;;;;;;10.01;62.47;100442.31;5031882;28;19929;-76
2022/09/30 03:36:44;;;;;;;;;;;;;;;10.09;62.38;100441.25;5028166;28;19921;-76
2022/09/30 03:39:23;;;;;;;;;;;;;;;10.11;62.62;100441.19;5030521;28;19952;-75
2022/09/30 03:41:55;;;;;;;;;;;;;;;10.09;62.56;100437.78;5028086;28;19924;-76
2022/09/30 03:44:25;;;;;;;;;;;;;;;10.10;62.20;100439.50;5028838;28;19917;-76
2022/09/30 03:46:56;;;;;;;;;;;;;;;9.99;61.61;100437.16;5031152;28;20382;-76
2022/09/30 03:49:27;;;;;;;;;;;;;;;10.00;61.60;100444.06;5034338;28;19932;-76
2022/09/30 03:51:53;;;;;;;;;;;;;;;10.02;62.31;100450.06;5031370;28;19921;-76
2022/09/30 03:54:18;;;;;;;;;;;;;;;9.92;62.17;100450.31;5025515;28;19921;-76
2022/09/30 03:56:44;;;;;;;;;;;;;;;9.86;62.14;100454.75;5038507;28;19913;-76
2022/09/30 03:59:18;;;;;;;;;;;;;;;9.88;62.01;100467.66;5020846;28;20208;-76
2022/09/30 04:01:44;;;;;;;;;;;;;;;9.79;62.03;100473.06;5025355;28;20004;-76
2022/09/30 04:04:09;;;;;;;;;;;;;;;9.79;62.14;100471.31;5032015;28;20020;-76
2022/09/30 04:06:34;;;;;;;;;;;;;;;9.78;62.21;100481.75;5054852;28;20292;-76
2022/09/30 04:09:00;;;;;;;;;;;;;;;9.87;62.17;100479.78;5050181;28;20374;-76
2022/09/30 04:11:25;;;;;;;;;;;;;;;9.80;61.65;100483.41;5049190;28;19917;-76
2022/09/30 04:13:50;;;;;;;;;;;;;;;9.76;61.89;100483.50;5046732;28;19973;-76
2022/09/30 04:16:15;;;;;;;;;;;;;;;9.76;61.43;100484.34;5052250;28;20324;-76
2022/09/30 04:18:41;;;;;;;;;;;;;;;9.68;62.02;100488.88;5048730;28;19929;-76
2022/09/30 04:21:10;;;;;;;;;;;;;;;9.63;62.49;100493.28;5049113;28;19952;-76
2022/09/30 04:23:36;;;;;;;;;;;;;;;9.64;62.61;100497.59;5048240;28;19971;-76
2022/09/30 04:26:02;;;;;;;;;;;;;;;9.65;61.61;100498.44;5048270;28;19956;-76
2022/09/30 04:28:27;;;;;;;;;;;;;;;9.71;61.63;100500.91;5045514;28;19916;-76
2022/09/30 04:30:52;;;;;;;;;;;;;;;9.69;61.95;100500.94;5048359;28;19921;-76
2022/09/30 04:33:17;;;;;;;;;;;;;;;9.63;62.79;100506.25;5053210;28;19923;-76
2022/09/30 04:35:44;;;;;;;;;;;;;;;9.67;62.64;100505.31;5057714;28;19913;-76
2022/09/30 04:38:09;;;;;;;;;;;;;;;9.60;62.58;100508.06;5053939;28;20694;-75
2022/09/30 04:40:36;;;;;;;;;;;;;;;9.59;62.75;100508.94;5045370;28;19921;-72
2022/09/30 04:43:01;;;;;;;;;;;;;;;9.57;62.67;100514.16;5039046;28;19932;-74
2022/09/30 04:45:27;;;;;;;;;;;;;;;9.58;62.63;100509.81;5027063;28;20298;-73
2022/09/30 04:47:52;;;;;;;;;;;;;;;9.56;62.73;100507.28;5024761;28;19970;-74
2022/09/30 04:50:17;;;;;;;;;;;;;;;9.62;62.70;100507.16;5023200;28;19928;-74
2022/09/30 04:52:43;;;;;;;;;;;;;;;9.67;62.89;100517.41;5035088;28;19944;-74
2022/09/30 04:55:08;;;;;;;;;;;;;;;9.52;63.09;100516.00;5039435;28;19960;-74
2022/09/30 04:57:34;;;;;;;;;;;;;;;9.61;62.69;100515.81;5038516;28;19928;-74
2022/09/30 04:59:59;;;;;;;;;;;;;;;9.71;62.66;100524.25;5036616;28;19912;-73
2022/09/30 05:02:24;;;;;;;;;;;;;;;9.65;62.78;100535.63;5027936;28;19921;-73
2022/09/30 05:04:50;;;;;;;;;;;;;;;9.52;63.02;100535.88;5025995;28;20130;-74
2022/09/30 05:07:15;;;;;;;;;;;;;;;9.59;63.17;100524.50;5028653;28;19921;-74
2022/09/30 05:09:40;;;;;;;;;;;;;;;9.60;63.02;100531.41;5026840;28;19974;-74
2022/09/30 05:12:06;;;;;;;;;;;;;;;9.56;63.50;100542.72;5033395;28;20309;-75
2022/09/30 05:14:32;;;;;;;;;;;;;;;9.49;63.41;100538.53;5038700;28;20008;-74
2022/09/30 05:16:59;;;;;;;;;;;;;;;9.48;63.09;100539.44;5046524;28;19917;-74
2022/09/30 05:19:28;;;;;;;;;;;;;;;9.51;63.93;100542.84;5012539;28;19948;-74
2022/09/30 05:21:53;;;;;;;;;;;;;;;9.57;63.63;100542.69;5047076;28;19920;-74
2022/09/30 05:24:23;;;;;;;;;;;;;;;9.58;63.50;100543.53;5041251;28;20007;-74
2022/09/30 05:26:49;;;;;;;;;;;;;;;9.71;63.60;100550.19;5048299;28;19920;-74
2022/09/30 05:29:14;;;;;;;;;;;;;;;9.67;63.47;100541.63;5050289;28;19928;-74
2022/09/30 05:31:43;;;;;;;;;;;;;;;9.73;63.14;100535.44;5046260;28;20020;-74
2022/09/30 05:34:08;;;;;;;;;;;;;;;9.62;63.35;100540.88;5036914;28;19928;-75
2022/09/30 05:36:33;;;;;;;;;;;;;;;9.72;63.31;100538.94;5026797;28;19921;-75
2022/09/30 05:38:58;;;;;;;;;;;;;;;9.66;63.37;100549.44;5028875;28;19968;-74
2022/09/30 05:41:27;;;;;;;;;;;;;;;9.71;63.40;100551.06;5046041;28;19921;-74
2022/09/30 05:43:55;;;;;;;;;;;;;;;9.70;63.23;100549.31;5055814;28;19925;-74
2022/09/30 05:46:21;;;;;;;;;;;;;;;9.68;62.92;100547.66;5051209;28;19916;-74
2022/09/30 05:48:46;;;;;;;;;;;;;;;9.72;63.91;100550.16;5036856;28;19927;-75
2022/09/30 05:51:12;;;;;;;;;;;;;;;9.74;62.98;100550.13;5046844;28;19928;-74
2022/09/30 05:53:38;;;;;;;;;;;;;;;9.62;63.85;100552.97;5050601;28;19917;-74
2022/09/30 05:56:03;;;;;;;;;;;;;;;9.67;63.48;100558.91;5054167;28;19920;-74
2022/09/30 05:58:29;;;;;;;;;;;;;;;9.83;63.38;100558.56;5040562;28;20023;-74
2022/09/30 06:00:54;;;;;;;;;;;;;;;9.70;63.34;100566.63;5058288;28;19920;-74
2022/09/30 06:03:19;;;;;;;;;;;;;;;9.65;63.69;100571.94;5060305;28;19962;-74
2022/09/30 06:05:44;;;;;;;;;;;;;;;9.66;63.64;100577.97;5052095;28;19951;-74
2022/09/30 06:08:10;;;;;;;;;;;;;;;9.65;63.85;100584.03;5051766;28;19929;-75
2022/09/30 06:10:38;;;;;;;;;;;;;;;9.80;63.46;100587.19;5049603;28;19924;-75
2022/09/30 06:13:04;;;;;;;;;;;;;;;9.92;62.87;100587.84;5053677;28;19965;-74
2022/09/30 06:15:29;;;;;;;;;;;;;;;9.93;63.28;100592.16;5061035;28;19916;-75
2022/09/30 06:17:55;;;;;;;;;;;;;;;9.89;63.53;100600.00;5051232;28;20090;-74
2022/09/30 06:20:20;;;;;;;;;;;;;;;9.81;63.82;100608.78;5044004;28;19955;-75
2022/09/30 06:22:45;;;;;;;;;;;;;;;9.75;63.86;100598.53;5057751;28;20425;-74
2022/09/30 06:25:11;;;;;;;;;;;;;;;9.75;63.94;100609.75;5060088;28;20373;-74
2022/09/30 06:27:37;;;;;;;;;;;;;;;9.81;63.49;100617.41;5061198;28;19928;-74
2022/09/30 06:30:05;;;;;;;;;;;;;;;9.81;63.63;100614.81;5053990;28;19917;-74
2022/09/30 06:32:30;;;;;;;;;;;;;;;9.80;64.10;100623.50;5057916;28;19996;-74
2022/09/30 06:34:56;;;;;;;;;;;;;;;9.95;64.12;100624.94;5061761;28;19943;-74
2022/09/30 06:37:21;;;;;;;;;;;;;;;10.04;64.06;100627.34;5027966;28;20390;-74
2022/09/30 06:39:47;;;;;;;;;;;;;;;10.02;64.12;100625.69;5029720;28;19941;-74
2022/09/30 06:42:12;;;;;;;;;;;;;;;10.06;64.18;100630.75;5036317;28;19917;-75
2022/09/30 06:44:37;;;;;;;;;;;;;;;10.12;63.63;100630.63;5034528;28;19960;-74
2022/09/30 06:47:03;;;;;;;;;;;;;;;10.08;63.77;100623.78;5043647;28;20366;-74
2022/09/30 06:49:28;;;;;;;;;;;;;;;10.06;64.32;100622.13;5047586;28;19943;-74
2022/09/30 06:51:53;;;;;;;;;;;;;;;10.11;64.56;100626.31;5055889;28;19921;-74
2022/09/30 06:54:21;;;;;;;;;;;;;;;10.15;64.60;100635.75;5055231;28;19934;-74
2022/09/30 06:56:47;;;;;;;;;;;;;;;10.06;64.44;100638.56;5035732;28;20296;-75
2022/09/30 06:59:15;;;;;;;;;;;;;;;10.08;64.65;100641.97;5040651;28;19933;-74
2022/09/30 07:01:41;;;;;;;;;;;;;;;10.14;64.71;100634.03;5051405;28;19921;-75
2022/09/30 07:04:09;;;;;;;;;;;;;;;9.95;65.63;100637.94;5050774;28;19924;-74
2022/09/30 07:06:34;;;;;;;;;;;;;;;10.12;64.98;100640.16;5048770;28;20292;-74
2022/09/30 07:08:59;;;;;;;;;;;;;;;10.12;64.91;100650.53;5050243;28;19917;-74
2022/09/30 07:11:24;;;;;;;;;;;;;;;10.24;64.33;100643.34;5050199;28;19921;-74
2022/09/30 07:13:50;;;;;;;;;;;;;;;10.13;64.69;100647.06;5049849;28;20298;-74
2022/09/30 07:16:17;;;;;;;;;;;;;;;10.09;65.27;100645.41;5050009;28;19967;-74
2022/09/30 07:18:44;;;;;;;;;;;;;;;10.20;64.53;100646.03;5050268;28;20010;-74
2022/09/30 07:21:11;;;;;;;;;;;;;;;10.17;64.80;100657.34;5053536;28;20377;-74
2022/09/30 07:23:36;;;;;;;;;;;;;;;10.18;64.72;100651.28;5050279;28;19917;-74
2022/09/30 07:26:03;;;;;;;;;;;;;;;10.13;65.45;100660.91;5051913;28;19925;-74
2022/09/30 07:28:33;;;;;;;;;;;;;;;10.14;64.65;100660.00;5043936;28;19917;-74
2022/09/30 07:30:59;;;;;;;;;;;;;;;10.27;64.94;100660.59;5042635;28;19921;-74
2022/09/30 07:33:27;;;;;;;;;;;;;;;10.37;65.23;100672.50;5038137;28;19924;-74
2022/09/30 07:35:54;;;;;;;;;;;;;;;10.31;65.33;100676.09;5051306;28;19920;-74
2022/09/30 07:38:20;;;;;;;;;;;;;;;10.31;64.96;100675.25;5049942;28;19921;-74
2022/09/30 07:40:55;;;;;;;;;;;;;;;10.33;65.56;100676.06;5031596;28;19924;-74
2022/09/30 07:43:20;;;;;;;;;;;;;;;10.32;65.29;100677.78;5051188;28;19924;-74
2022/09/30 07:45:46;;;;;;;;;;;;;;;10.35;65.42;100682.91;5050342;28;20453;-74
2022/09/30 07:48:41;;;;;;;;;;;;;;;10.33;64.77;100683.84;5049513;28;19921;-74
2022/09/30 07:50:57;;;;;;;;;;;;;;;10.30;64.84;100684.75;5048352;28;19962;-74
2022/09/30 07:53:22;;;;;;;;;;;;;;;10.39;65.05;100683.72;5048517;28;19920;-74
2022/09/30 07:55:47;;;;;;;;;;;;;;;10.36;65.37;100684.63;5049141;28;19995;-74
2022/09/30 07:58:13;;;;;;;;;;;;;;;10.39;65.23;100687.16;5051447;28;19924;-74
2022/09/30 08:00:38;;;;;;;;;;;;;;;10.35;65.24;100680.31;5045535;28;19921;-74
2022/09/30 08:03:05;;;;;;;;;;;;;;;10.43;64.77;100678.41;5050999;28;21585;-74
2022/09/30 08:05:30;;;;;;;;;;;;;;;10.46;64.87;100690.50;5053856;28;19962;-74
2022/09/30 08:07:56;;;;;;;;;;;;;;;10.44;65.01;100682.72;5049469;28;20258;-74
2022/09/30 08:10:21;;;;;;;;;;;;;;;10.42;65.72;100686.25;5048380;28;19925;-74
2022/09/30 08:12:46;;;;;;;;;;;;;;;10.58;65.06;100689.38;5043684;28;19927;-74
2022/09/30 08:15:11;;;;;;;;;;;;;;;10.55;64.87;100690.28;5053860;28;19928;-74
2022/09/30 08:17:37;;;;;;;;;;;;;;;10.56;65.63;100694.59;5033277;28;19918;-74
2022/09/30 08:20:02;;;;;;;;;;;;;;;10.65;64.31;100688.31;5013204;28;20413;-74
2022/09/30 08:22:27;;;;;;;;;;;;;;;10.63;64.90;100688.38;5028896;28;19956;-75
2022/09/30 08:24:53;;;;;;;;;;;;;;;10.69;64.68;100690.84;5029806;28;19928;-74
2022/09/30 08:27:18;;;;;;;;;;;;;;;10.69;65.22;100689.97;5032714;28;19920;-74
2022/09/30 08:29:43;;;;;;;;;;;;;;;10.74;65.24;100690.72;5054727;28;19968;-74
2022/09/30 08:32:08;;;;;;;;;;;;;;;10.74;64.67;100690.72;5037119;28;19917;-74
2022/09/30 08:34:34;;;;;;;;;;;;;;;10.82;64.52;100687.03;5038764;28;20270;-74
2022/09/30 08:37:00;;;;;;;;;;;;;;;10.72;64.85;100702.91;5034696;28;19925;-74
2022/09/30 08:39:25;;;;;;;;;;;;;;;10.81;65.40;100690.56;5011272;28;19933;-74
2022/09/30 08:42:13;;;;;;;;;;;;;;;10.83;64.75;100693.97;5032386;28;19917;-74
2022/09/30 08:44:47;;;;;;;;;;;;;;;10.84;65.32;100685.28;5035667;28;19928;-74
2022/09/30 08:47:26;;;;;;;;;;;;;;;10.90;65.33;100690.34;5031433;28;20055;-74
2022/09/30 08:49:55;;;;;;;;;;;;;;;10.93;64.65;100690.28;5053066;28;20659;-74
2022/09/30 08:52:25;;;;;;;;;;;;;;;10.95;65.41;100695.41;5050576;28;20467;-74
2022/09/30 08:54:52;;;;;;;;;;;;;;;10.99;65.59;100691.88;5049030;28;20432;-74
2022/09/30 08:57:18;;;;;;;;;;;;;;;10.97;65.86;100693.63;5046420;28;20070;-74
2022/09/30 08:59:45;;;;;;;;;;;;;;;10.99;65.23;100689.28;5033572;28;19928;-74
2022/09/30 09:02:31;;;;;;;;;;;;;;;11.06;64.69;100689.97;5028669;28;19921;-74
2022/09/30 09:04:58;;;;;;;;;;;;;;;11.11;64.99;100688.97;5024460;28;19921;-74
2022/09/30 09:07:42;;;;;;;;;;;;;;;11.10;65.57;100684.66;5026487;28;19964;-74
2022/09/30 09:10:10;;;;;;;;;;;;;;;11.22;64.80;100684.34;5026908;28;19967;-74
2022/09/30 09:12:41;;;;;;;;;;;;;;;11.21;64.06;100682.63;5027867;28;19953;-74
2022/09/30 09:15:10;;;;;;;;;;;;;;;11.25;65.05;100686.88;5032465;28;19921;-74
2022/09/30 09:17:46;;;;;;;;;;;;;;;11.31;65.30;100685.91;5047661;28;20298;-74
2022/09/30 09:20:20;;;;;;;;;;;;;;;11.34;65.88;100686.69;5053813;28;20015;-74
2022/09/30 09:22:47;;;;;;;;;;;;;;;11.26;66.29;100683.41;5034102;28;20320;-76
2022/09/30 09:25:14;;;;;;;;;;;;;;;11.32;63.90;100672.88;5032124;28;19991;-75
2022/09/30 09:27:39;;;;;;;;;;;;;;;11.27;64.84;100679.03;5033552;28;19921;-74
2022/09/30 09:30:07;;;;;;;;;;;;;;;11.24;65.06;100679.97;5037650;28;19917;-75
2022/09/30 09:32:32;;;;;;;;;;;;;;;11.35;64.64;100677.13;5033402;28;20011;-75
2022/09/30 09:35:00;;;;;;;;;;;;;;;11.34;65.32;100681.47;5029865;28;19971;-74
2022/09/30 09:40:40;;;;;;;;;;;;;;;11.40;64.50;100678.72;5037693;28;20504;-74
2022/09/30 09:43:06;;;;;;;;;;;;;;;11.47;64.76;100674.22;5034724;28;19921;-74
2022/09/30 09:45:44;;;;;;;;;;;;;;;11.49;64.28;100673.28;5035423;28;19924;-74
2022/09/30 09:48:12;;;;;;;;;;;;;;;11.57;65.41;100679.13;5031967;28;19921;-74
2022/09/30 09:51:03;;;;;;;;;;;;;;;11.64;64.26;100674.63;5046198;28;19936;-74
2022/09/30 09:53:35;;;;;;;;;;;;;;;11.69;65.01;100680.56;5041478;28;19924;-74
2022/09/30 09:56:01;;;;;;;;;;;;;;;11.72;65.03;100680.47;5050336;28;19916;-74
2022/09/30 09:58:27;;;;;;;;;;;;;;;11.84;64.63;100677.53;5033062;28;20417;-74
2022/09/30 10:03:23;;;;;;;;;;;;;;;11.82;64.90;100670.66;5030062;28;19921;-74
2022/09/30 10:05:58;;;;;;;;;;;;;;;11.83;63.92;100670.63;5030784;28;19913;-74
2022/09/30 10:08:23;;;;;;;;;;;;;;;11.89;64.65;100667.84;5033348;28;19970;-74
2022/09/30 10:10:50;;;;;;;;;;;;;;;11.84;64.85;100667.13;5041955;28;19918;-74
2022/09/30 10:13:23;;;;;;;;;;;;;;;11.98;63.61;100658.91;5031282;28;19948;-74
2022/09/30 10:15:50;;;;;;;;;;;;;;;11.97;64.25;100665.03;5032211;28;19963;-74
2022/09/30 10:18:18;;;;;;;;;;;;;;;11.90;63.61;100672.16;5028382;28;19929;-74
2022/09/30 10:20:49;;;;;;;;;;;;;;;11.89;63.39;100665.25;5027531;28;20398;-74
2022/09/30 10:23:19;;;;;;;;;;;;;;;11.98;63.34;100658.91;5029931;28;20463;-74
2022/09/30 10:25:58;;;;;;;;;;;;;;;12.06;62.52;100655.22;5034552;28;20021;-74
2022/09/30 10:28:25;;;;;;;;;;;;;;;12.09;62.21;100657.75;5029833;28;19944;-74
2022/09/30 10:30:56;;;;;;;;;;;;;;;12.08;61.85;100647.34;5022437;28;19926;-74
2022/09/30 10:33:42;;;;;;;;;;;;;;;12.10;62.60;100646.41;5031520;28;20012;-74
2022/09/30 10:36:07;;;;;;;;;;;;;;;12.10;61.58;100646.41;5039562;28;19917;-74
2022/09/30 10:38:33;;;;;;;;;;;;;;;12.20;61.57;100651.34;5030469;28;20394;-74
2022/09/30 10:40:59;;;;;;;;;;;;;;;12.20;62.55;100652.22;5036220;28;20297;-74
2022/09/30 10:43:36;;;;;;;;;;;;;;;12.25;61.94;100649.44;5033455;28;19917;-74
2022/09/30 10:46:03;;;;;;;;;;;;;;;12.32;61.93;100644.03;5028809;28;19977;-74
2022/09/30 10:48:30;;;;;;;;;;;;;;;12.34;62.98;100650.03;5028486;28;20333;-74
2022/09/30 10:50:56;;;;;;;;;;;;;;;12.34;61.34;100650.03;5031353;28;20358;-74
2022/09/30 10:53:23;;;;;;;;;;;;;;;12.33;61.19;100647.50;5030419;28;19931;-74
2022/09/30 10:55:48;;;;;;;;;;;;;;;12.45;61.69;100650.56;5032443;28;20425;-74
2022/09/30 10:58:29;;;;;;;;;;;;;;;12.38;61.70;100641.25;5030010;28;19921;-74
2022/09/30 11:01:18;;;;;;;;;;;;;;;12.42;61.02;100644.63;5041996;28;19921;-74
2022/09/30 11:03:52;;;;;;;;;;;;;;;12.40;61.33;100642.03;5033928;28;19921;-74
2022/09/30 11:06:19;;;;;;;;;;;;;;;12.50;61.69;100637.41;5048031;28;19931;-74
2022/09/30 11:08:52;;;;;;;;;;;;;;;12.48;59.87;100632.22;5033748;28;19917;-74
2022/09/30 11:11:20;;;;;;;;;;;;;;;12.51;60.29;100632.13;5034642;28;19917;-74
2022/09/30 11:13:46;;;;;;;;;;;;;;;12.56;60.44;100629.44;5032881;28;19953;-74
2022/09/30 11:16:16;;;;;;;;;;;;;;;12.58;61.00;100641.50;5032366;28;20026;-74
2022/09/30 11:19:14;;;;;;;;;;;;;;;12.67;59.58;100632.53;5030289;28;19972;-74
2022/09/30 11:21:49;;;;;;;;;;;;;;;12.69;59.93;100630.72;5013915;28;19925;-74
2022/09/30 11:24:23;;;;;;;;;;;;;;;12.61;60.45;100638.81;5033529;28;19928;-74
2022/09/30 11:27:00;;;;;;;;;;;;;;;12.61;59.74;100638.81;5031427;28;19913;-74
2022/09/30 11:29:55;;;;;;;;;;;;;;;12.60;58.86;100641.47;5015369;28;19929;-74
2022/09/30 11:32:39;;;;;;;;;;;;;;;12.67;57.99;100642.97;4995553;28;20041;-74
2022/09/30 11:35:23;;;;;;;;;;;;;;;12.70;59.06;100649.84;5023479;28;20380;-74
2022/09/30 11:38:07;;;;;;;;;;;;;;;12.68;58.87;100654.25;5027439;28;19967;-74
2022/09/30 11:40:33;;;;;;;;;;;;;;;12.77;56.47;100649.63;5027673;28;19921;-74
2022/09/30 11:42:58;;;;;;;;;;;;;;;12.71;58.82;100655.00;5026534;28;19925;-74
2022/09/30 11:45:40;;;;;;;;;;;;;;;12.72;58.30;100650.66;5030056;28;19921;-74
2022/09/30 11:48:05;;;;;;;;;;;;;;;12.66;60.54;100655.16;5024712;28;19913;-74
2022/09/30 11:50:37;;;;;;;;;;;;;;;12.67;60.72;100653.41;5030572;28;19924;-74
2022/09/30 11:53:06;;;;;;;;;;;;;;;12.66;61.78;100654.31;5048922;28;19928;-74
2022/09/30 11:56:00;;;;;;;;;;;;;;;12.63;61.73;100665.66;5030770;28;20266;-74
2022/09/30 11:58:30;;;;;;;;;;;;;;;12.62;61.56;100663.13;5028291;28;20297;-74
2022/09/30 12:01:13;;;;;;;;;;;;;;;12.57;62.62;100663.25;5029030;28;20007;-74
2022/09/30 12:03:45;;;;;;;;;;;;;;;12.65;62.18;100655.22;5026288;28;19928;-74
2022/09/30 12:06:18;;;;;;;;;;;;;;;12.64;62.04;100651.75;5028744;28;19920;-74
2022/09/30 12:08:58;;;;;;;;;;;;;;;12.68;61.29;100639.47;5034252;28;19919;-74
2022/09/30 12:11:45;;;;;;;;;;;;;;;12.73;60.72;100631.50;5029008;28;19921;-75
2022/09/30 12:14:41;;;;;;;;;;;;;;;12.84;59.29;100634.63;5030225;28;20417;-74
2022/09/30 12:17:11;;;;;;;;;;;;;;;12.88;59.99;100639.69;5021062;28;20018;-74
2022/09/30 12:19:41;;;;;;;;;;;;;;;12.91;59.77;100631.75;5026663;28;20030;-74
2022/09/30 12:22:13;;;;;;;;;;;;;;;12.99;59.52;100628.88;5026260;28;19921;-74
2022/09/30 12:24:39;;;;;;;;;;;;;;;12.98;59.45;100627.22;5024298;28;19929;-74
2022/09/30 12:27:20;;;;;;;;;;;;;;;12.97;58.73;100625.50;5034121;28;19970;-74
2022/09/30 12:32:55;;;;;;;;;;;;;;;13.10;56.03;100622.44;5036110;28;19987;-74
2022/09/30 12:35:23;;;;;;;;;;;;;;;13.08;56.54;100618.16;5037032;28;19951;-74
2022/09/30 12:37:48;;;;;;;;;;;;;;;13.10;56.03;100604.19;5034162;28;19917;-74
2022/09/30 12:40:15;;;;;;;;;;;;;;;13.07;56.08;100600.81;5031265;28;20370;-74
2022/09/30 12:42:41;;;;;;;;;;;;;;;13.12;56.40;100597.16;5037356;28;19928;-74
2022/09/30 12:45:06;;;;;;;;;;;;;;;13.11;57.07;100592.84;5026749;28;20345;-74
2022/09/30 12:47:45;;;;;;;;;;;;;;;13.12;57.15;100604.97;5034033;28;19975;-74
2022/09/30 12:50:13;;;;;;;;;;;;;;;13.00;59.82;100600.19;5032891;28;19944;-74
2022/09/30 12:52:39;;;;;;;;;;;;;;;12.97;59.64;100604.63;5042293;28;19920;-74
2022/09/30 12:55:07;;;;;;;;;;;;;;;12.97;59.81;100610.72;5042554;28;19917;-74
2022/09/30 12:57:36;;;;;;;;;;;;;;;13.14;56.30;100597.09;5023978;28;20396;-74